Disclaimer

Please do not use the information listed here in-flight or in-navigation, as they are not provided to us by the airports but are provided by volunteers, so they might be outdated.

Search


Regions


Airport information page

Radio informations:
RDO - 4728 MHz
SAMARKAND CON - 134.3 MHz

Airport informations:
Latitude: 37° 17' 12.00" N
Longitude: 067° 18' 36.00" E
Elevation: 1027 feet - 313 meters
Operating hours: Remarks
Operating agency: Civil government, landing fees and diplomatic clearance may be required
Timezone: UTC+5
Fuel: N/A

Runway information:
07/25 - 9843 x 138 feet< - >3000 x 42 meters

Recent METARs:
UTST 210030Z 06010KT 9999 FEW060CB 10/04 Q1021 R88/CLRD70 NOSIG
UTST 210100Z 06006KT 9999 FEW060CB 10/04 Q1020 R88/CLRD70 NOSIG
UTST 210130Z 11006KT 9999 FEW060CB 08/03 Q1020 R88/CLRD70 NOSIG

Airport on the map: